Time;durP1;ratioP1;P1;durP2;ratioP2;P2;SDS_P1;SDS_P2;PMS_P1;PMS_P2;Temp;Humidity;BMP_temperature;BMP_pressure;BME280_temperature;BME280_humidity;BME280_pressure;Samples;Min_cycle;Max_cycle;Signal;HPM_P1;HPM_P2
2023/04/09 00:02:25;;;;;;;53.00;32.20;;;;;;;4.53;81.73;101514.96;105313;1257;69183;-57
2023/04/09 00:05:58;;;;;;;45.80;30.00;;;;;;;4.50;81.73;101515.80;105451;1254;74156;-59
2023/04/09 00:09:20;;;;;;;51.60;30.90;;;;;;;4.48;81.66;101519.42;105369;1254;83199;-61
2023/04/09 00:13:10;;;;;;;47.80;29.50;;;;;;;4.49;81.79;101515.48;105240;1256;74772;-58
2023/04/09 00:16:39;;;;;;;48.20;29.90;;;;;;;4.48;81.64;101517.36;105492;1257;69511;-60
2023/04/09 00:20:20;;;;;;;45.90;28.50;;;;;;;4.47;81.79;101515.11;105340;1254;69195;-58
2023/04/09 00:23:47;;;;;;;46.00;27.70;;;;;;;4.50;81.74;101517.89;105416;1254;74082;-58
2023/04/09 00:27:23;;;;;;;46.60;28.20;;;;;;;4.51;81.77;101517.36;105050;1258;83384;-63
2023/04/09 00:31:05;;;;;;;;;;;;;;;;;;;;;
2023/04/09 00:34:55;;;;;;;46.00;28.70;;;;;;;4.51;81.71;101512.34;105351;1254;69050;-60
2023/04/09 00:38:26;;;;;;;;;;;;;;;;;;;;;
2023/04/09 00:42:06;;;;;;;49.30;30.20;;;;;;;4.47;82.10;101512.85;105336;1257;73486;-57
2023/04/09 00:45:50;;;;;;;43.30;27.20;;;;;;;4.43;82.13;101514.02;105403;1256;83278;-60
2023/04/09 00:49:38;;;;;;;41.10;27.10;;;;;;;4.39;81.83;101515.92;105103;1256;73809;-61
2023/04/09 00:52:58;;;;;;;42.90;27.90;;;;;;;4.34;81.92;101511.39;105167;1256;69154;-61
2023/04/09 00:56:26;;;;;;;42.20;27.10;;;;;;;4.25;81.55;101507.52;105162;1256;69203;-57
2023/04/09 01:03:56;;;;;;;;;;;;;;;;;;;;;
2023/04/09 01:07:42;;;;;;;40.40;26.20;;;;;;;4.09;82.13;101515.71;105096;1258;72652;-62
2023/04/09 01:15:52;;;;;;;44.10;27.70;;;;;;;4.01;82.47;101514.45;105081;1256;69100;-59
2023/04/09 01:19:41;;;;;;;53.40;31.40;;;;;;;3.96;82.36;101514.40;104440;1265;74064;-59
2023/04/09 01:23:34;;;;;;;;;;;;;;;;;;;;;
2023/04/09 01:27:22;;;;;;;;;;;;;;;;;;;;;
2023/04/09 01:49:52;;;;;;;47.20;29.30;;;;;;;3.97;83.30;101510.78;101766;1297;600527;-58
2023/04/09 01:53:27;;;;;;;;;;;;;;;;;;;;;
2023/04/09 01:57:26;;;;;;;46.80;29.50;;;;;;;3.94;83.38;101510.41;104139;1273;69227;-60
2023/04/09 02:01:17;;;;;;;48.90;29.40;;;;;;;3.90;83.71;101507.79;104010;1271;71759;-58
2023/04/09 02:05:04;;;;;;;;;;;;;;;;;;;;;
2023/04/09 02:08:46;;;;;;;;;;;;;;;;;;;;;
2023/04/09 02:12:29;;;;;;;;;;;;;;;;;;;;;
2023/04/09 02:16:11;;;;;;;43.70;27.70;;;;;;;3.91;83.81;101509.00;104565;1267;71510;-60
2023/04/09 02:20:00;;;;;;;46.70;27.30;;;;;;;3.91;83.71;101513.84;104565;1264;82548;-58
2023/04/09 02:23:49;;;;;;;44.30;27.50;;;;;;;3.91;83.83;101516.27;104601;1267;71736;-62
2023/04/09 02:27:23;;;;;;;;;;;;;;;;;;;;;
2023/04/09 02:31:13;;;;;;;42.70;27.70;;;;;;;3.91;83.84;101519.72;104557;1263;69191;-59
2023/04/09 02:35:03;;;;;;;45.30;28.00;;;;;;;3.86;83.76;101521.23;104767;1263;73234;-61
2023/04/09 02:38:18;;;;;;;;;;;;;;;;;;;;;
2023/04/09 02:42:02;;;;;;;46.70;29.10;;;;;;;3.80;83.84;101520.15;104708;1267;73776;-60
2023/04/09 02:45:51;;;;;;;43.20;26.90;;;;;;;3.77;83.77;101519.60;104547;1268;69148;-59
2023/04/09 02:49:40;;;;;;;43.40;26.60;;;;;;;3.72;83.89;101520.25;104601;1270;69230;-59
2023/04/09 02:53:29;;;;;;;44.60;27.20;;;;;;;3.68;83.93;101521.09;104513;1265;72746;-63
2023/04/09 02:57:12;;;;;;;44.90;27.00;;;;;;;3.67;84.11;101516.40;104592;1269;83447;-58
2023/04/09 03:00:51;;;;;;;;;;;;;;;;;;;;;
2023/04/09 03:04:41;;;;;;;41.90;26.80;;;;;;;3.67;84.22;101509.15;104447;1265;70844;-59
2023/04/09 03:08:16;;;;;;;43.40;27.00;;;;;;;3.66;84.37;101509.14;104309;1267;69312;-60
2023/04/09 03:12:05;;;;;;;42.10;26.90;;;;;;;3.63;84.41;101516.70;104593;1266;73534;-58
2023/04/09 03:15:57;;;;;;;42.50;27.50;;;;;;;3.57;84.48;101514.06;104467;1267;83460;-58
2023/04/09 03:19:47;;;;;;;44.60;28.50;;;;;;;3.54;84.75;101514.03;104350;1269;73637;-59
2023/04/09 03:23:37;;;;;;;;;;;;;;;;;;;;;
2023/04/09 03:27:27;;;;;;;46.20;28.20;;;;;;;3.47;84.63;101507.73;104314;1272;69419;-57
2023/04/09 03:31:17;;;;;;;44.50;27.90;;;;;;;3.44;84.70;101509.79;104170;1270;73771;-58
2023/04/09 03:35:06;;;;;;;49.40;29.40;;;;;;;3.38;84.40;101509.39;104112;1268;82436;-60
2023/04/09 03:38:55;;;;;;;47.80;28.30;;;;;;;3.36;84.64;101508.31;104334;1268;72846;-59
2023/04/09 03:42:36;;;;;;;;;;;;;;;;;;;;;
2023/04/09 03:46:27;;;;;;;51.60;28.50;;;;;;;3.27;84.86;101503.91;104388;1265;69163;-58
2023/04/09 03:50:16;;;;;;;43.30;27.70;;;;;;;3.22;84.96;101501.45;104555;1266;73323;-56
2023/04/09 04:05:34;;;;;;;51.20;28.80;;;;;;;3.23;85.63;101502.66;104215;1274;69217;-58
2023/04/09 04:09:20;;;;;;;;;;;;;;;;;;;;;
2023/04/09 04:13:04;;;;;;;48.50;29.80;;;;;;;3.16;85.79;101507.77;103825;1278;83562;-58
2023/04/09 04:20:09;;;;;;;;;;;;;;;;;;;;;
2023/04/09 04:24:06;;;;;;;47.40;28.80;;;;;;;3.00;85.71;101507.92;103040;1285;69231;-54
2023/04/09 04:32:07;;;;;;;43.10;27.30;;;;;;;2.99;86.29;101511.54;102158;1292;84328;-62
2023/04/09 04:35:30;;;;;;;66.80;34.60;;;;;;;3.01;86.23;101516.73;102509;1288;72701;-59
2023/04/09 04:39:03;;;;;;;69.20;36.30;;;;;;;3.06;86.79;101521.64;103095;1282;69073;-58
2023/04/09 04:42:45;;;;;;;;;;;;;;;;;;;;;
2023/04/09 04:46:20;;;;;;;75.50;39.40;;;;;;;3.24;87.00;101524.95;103027;1287;73246;-57
2023/04/09 04:53:30;;;;;;;49.50;29.90;;;;;;;3.37;87.20;101523.36;102632;1286;74869;-56
2023/04/09 05:01:21;;;;;;;47.40;30.10;;;;;;;3.49;87.33;101527.64;102997;1286;69332;-55
2023/04/09 05:11:58;;;;;;;;;;;;;;;;;;;;;
2023/04/09 05:15:44;;;;;;;;;;;;;;;;;;;;;
2023/04/09 05:19:15;;;;;;;40.80;26.40;;;;;;;3.95;87.03;101538.79;102854;1286;69359;-55
2023/04/09 05:23:05;;;;;;;38.90;26.00;;;;;;;4.01;87.10;101536.23;103282;1281;74361;-54
2023/04/09 05:26:03;;;;;;;41.90;26.20;;;;;;;4.07;86.86;101531.79;102939;1281;84469;-49
2023/04/09 05:29:27;;;;;;;43.70;27.20;;;;;;;4.11;87.19;101527.84;102998;1283;73602;-55
2023/04/09 05:32:24;;;;;;;50.50;31.10;;;;;;;4.13;87.00;101526.30;103907;1277;69448;-52
2023/04/09 05:35:40;;;;;;;51.10;29.80;;;;;;;4.16;86.98;101524.08;103745;1280;70045;-52
2023/04/09 05:38:34;;;;;;;39.80;25.90;;;;;;;4.20;86.97;101518.89;104263;1269;72944;-54
2023/04/09 05:41:51;;;;;;;;;;;;;;;;;;;;;
2023/04/09 05:45:26;;;;;;;43.30;27.50;;;;;;;4.32;86.98;101519.51;104182;1274;74073;-49
2023/04/09 05:48:43;;;;;;;40.10;25.10;;;;;;;4.36;87.20;101517.98;104263;1276;69938;-52
2023/04/09 05:51:58;;;;;;;40.60;25.40;;;;;;;4.44;87.11;101523.73;104187;1271;69997;-48
2023/04/09 05:55:04;;;;;;;;;;;;;;;;;;;;;
2023/04/09 05:58:54;;;;;;;45.00;28.60;;;;;;;4.44;86.68;101525.98;104041;1276;83426;-50
2023/04/09 06:01:56;;;;;;;43.00;27.10;;;;;;;4.48;86.85;101528.26;104280;1277;72864;-52
2023/04/09 06:05:19;;;;;;;43.30;27.50;;;;;;;4.50;86.60;101530.70;104046;1271;69941;-53
2023/04/09 06:08:46;;;;;;;;;;;;;;;;;;;;;
2023/04/09 06:11:53;;;;;;;44.40;26.00;;;;;;;4.51;86.62;101544.55;104032;1274;73536;-54
2023/04/09 06:15:20;;;;;;;;;;;;;;;;;;;;;
2023/04/09 06:18:26;;;;;;;40.10;25.60;;;;;;;4.63;86.60;101542.71;104076;1274;73279;-49
2023/04/09 06:21:23;;;;;;;41.40;25.20;;;;;;;4.70;86.87;101539.64;104284;1265;69813;-52
2023/04/09 06:24:28;;;;;;;45.20;27.40;;;;;;;4.75;86.62;101541.40;104684;1265;70305;-50
2023/04/09 06:27:55;;;;;;;;;;;;;;;;;;;;;
2023/04/09 06:31:47;;;;;;;50.20;31.20;;;;;;;4.90;86.83;101540.61;104480;1267;84740;-55
2023/04/09 06:39:22;;;;;;;;;;;;;;;;;;;;;
2023/04/09 06:43:13;;;;;;;43.70;28.40;;;;;;;5.11;86.25;101543.30;104613;1264;69191;-61
2023/04/09 06:46:47;;;;;;;46.00;29.00;;;;;;;5.15;86.44;101547.30;104465;1267;72174;-60
2023/04/09 06:50:28;;;;;;;;;;;;;;;;;;;;;
2023/04/09 06:53:54;;;;;;;;;;;;;;;;;;;;;
2023/04/09 06:57:36;;;;;;;45.40;28.20;;;;;;;5.57;86.54;101546.88;104854;1268;69177;-59
2023/04/09 07:01:06;;;;;;;;;;;;;;;;;;;;;
2023/04/09 07:04:46;;;;;;;37.60;25.60;;;;;;;5.86;86.97;101549.02;104567;1267;73489;-55
2023/04/09 07:08:21;;;;;;;;;;;;;;;;;;;;;
2023/04/09 07:11:48;;;;;;;;;;;;;;;;;;;;;
2023/04/09 07:18:51;;;;;;;36.80;24.30;;;;;;;6.29;85.81;101562.23;104573;1264;69092;-61
2023/04/09 07:22:08;;;;;;;36.90;22.90;;;;;;;6.34;85.54;101560.48;104740;1268;73516;-60
2023/04/09 07:29:15;;;;;;;36.20;25.40;;;;;;;6.32;85.23;101562.92;104587;1268;73730;-59
2023/04/09 07:32:45;;;;;;;;;;;;;;;;;;;;;
2023/04/09 07:36:28;;;;;;;35.60;25.10;;;;;;;6.25;85.49;101548.52;104498;1277;69223;-61
2023/04/09 07:40:01;;;;;;;;;;;;;;;;;;;;;
2023/04/09 07:43:43;;;;;;;;;;;;;;;;;;;;;
2023/04/09 07:47:17;;;;;;;;;;;;;;;;;;;;;
2023/04/09 07:51:08;;;;;;;34.50;23.10;;;;;;;6.35;85.59;101549.02;104509;1269;69234;-59
2023/04/09 07:54:37;;;;;;;36.80;22.90;;;;;;;6.42;85.57;101553.02;104528;1269;69187;-54
2023/04/09 07:58:16;;;;;;;38.70;24.10;;;;;;;6.44;85.59;101562.21;104707;1269;73102;-57
2023/04/09 08:01:38;;;;;;;;;;;;;;;;;;;;;
2023/04/09 08:04:58;;;;;;;40.00;27.00;;;;;;;6.48;85.86;101549.37;104657;1269;71960;-57
2023/04/09 08:08:25;;;;;;;;;;;;;;;;;;;;;
2023/04/09 08:12:02;;;;;;;;;;;;;;;;;;;;;
2023/04/09 08:15:27;;;;;;;37.90;25.10;;;;;;;6.50;86.30;101559.94;104621;1267;74429;-55
2023/04/09 08:18:48;;;;;;;48.20;29.10;;;;;;;6.60;86.45;101566.01;104618;1267;83538;-56
2023/04/09 08:22:01;;;;;;;;;;;;;;;;;;;;;
2023/04/09 08:25:25;;;;;;;46.20;29.40;;;;;;;6.80;86.61;101572.90;104535;1268;69278;-59
2023/04/09 08:29:13;;;;;;;;;;;;;;;;;;;;;
2023/04/09 08:32:46;;;;;;;;;;;;;;;;;;;;;
2023/04/09 08:35:59;;;;;;;;;;;;;;;;;;;;;
2023/04/09 08:39:26;;;;;;;36.40;24.60;;;;;;;7.16;86.16;101575.23;104697;1264;72329;-56
2023/04/09 08:42:53;;;;;;;40.70;25.80;;;;;;;7.28;86.27;101557.95;104722;1267;69201;-59
2023/04/09 08:46:27;;;;;;;34.50;23.30;;;;;;;7.38;85.53;101559.98;104710;1269;69121;-58
2023/04/09 08:49:42;;;;;;;34.30;23.70;;;;;;;7.54;86.02;101561.81;104780;1270;73924;-59
2023/04/09 08:52:41;;;;;;;38.20;23.90;;;;;;;7.64;85.88;101556.52;104710;1269;83956;-63
2023/04/09 08:56:00;;;;;;;39.00;25.40;;;;;;;7.69;85.47;101548.49;104676;1269;73884;-62
2023/04/09 08:59:11;;;;;;;;;;;;;;;;;;;;;
2023/04/09 09:02:34;;;;;;;38.80;25.30;;;;;;;7.88;86.11;101545.41;104758;1267;69182;-60
2023/04/09 09:05:59;;;;;;;;;;;;;;;;;;;;;
2023/04/09 09:09:47;;;;;;;38.70;26.80;;;;;;;8.24;85.77;101555.91;104850;1269;82532;-60
2023/04/09 09:13:01;;;;;;;51.10;30.10;;;;;;;8.47;85.78;101554.15;104144;1276;73753;-60
2023/04/09 09:16:44;;;;;;;;;;;;;;;;;;;;;
2023/04/09 09:19:56;;;;;;;36.00;25.00;;;;;;;8.73;84.75;101556.16;103299;1280;69413;-61
2023/04/09 09:23:28;;;;;;;34.60;24.30;;;;;;;8.79;84.60;101559.56;103593;1277;74303;-59
2023/04/09 09:27:01;;;;;;;;;;;;;;;;;;;;;
2023/04/09 09:30:08;;;;;;;32.80;23.60;;;;;;;8.80;84.20;101552.93;103658;1280;73980;-58
2023/04/09 09:33:48;;;;;;;33.90;24.20;;;;;;;8.79;83.89;101551.73;103566;1283;69136;-57
2023/04/09 09:37:03;;;;;;;33.50;24.50;;;;;;;8.77;83.67;101552.61;103409;1282;69325;-60
2023/04/09 09:40:21;;;;;;;;;;;;;;;;;;;;;
2023/04/09 09:43:46;;;;;;;36.80;24.60;;;;;;;8.79;83.43;101548.77;103698;1281;83288;-57
2023/04/09 09:47:08;;;;;;;34.30;23.30;;;;;;;8.84;83.39;101545.56;104172;1274;74279;-60
2023/04/09 09:50:19;;;;;;;32.60;24.50;;;;;;;8.93;83.42;101541.80;104171;1277;69263;-58
2023/04/09 09:53:21;;;;;;;41.20;28.70;;;;;;;9.06;83.57;101544.95;104547;1264;69209;-58
2023/04/09 09:56:54;;;;;;;34.90;25.60;;;;;;;9.18;83.43;101545.86;104793;1260;74345;-57
2023/04/09 10:00:03;;;;;;;39.60;28.20;;;;;;;9.20;83.25;101551.41;105071;1264;83478;-56
2023/04/09 10:03:43;;;;;;;37.20;26.80;;;;;;;9.18;82.99;101550.90;104940;1264;73837;-59
2023/04/09 10:10:04;;;;;;;39.20;28.30;;;;;;;8.86;82.55;101545.01;104758;1261;69093;-59
2023/04/09 10:13:25;;;;;;;;;;;;;;;;;;;;;
2023/04/09 10:16:25;;;;;;;35.20;24.50;;;;;;;8.53;82.90;101542.95;104849;1261;82910;-57
2023/04/09 10:19:36;;;;;;;37.60;25.30;;;;;;;8.48;82.73;101546.13;104862;1264;72185;-59
2023/04/09 10:22:42;;;;;;;38.90;26.90;;;;;;;8.47;83.17;101545.09;104914;1261;69144;-58
2023/04/09 10:25:54;;;;;;;;;;;;;;;;;;;;;
2023/04/09 10:29:21;;;;;;;;;;;;;;;;;;;;;
2023/04/09 10:32:35;;;;;;;35.20;24.10;;;;;;;8.49;83.65;101543.34;105080;1264;83422;-57
2023/04/09 10:35:37;;;;;;;;;;;;;;;;;;;;;
2023/04/09 10:38:40;;;;;;;37.80;26.50;;;;;;;8.40;83.35;101538.70;104396;1269;69218;-58
2023/04/09 10:42:03;;;;;;;42.10;27.60;;;;;;;8.37;83.90;101532.81;104469;1268;69127;-59
2023/04/09 10:45:27;;;;;;;35.50;25.20;;;;;;;8.42;84.17;101532.77;104424;1274;74162;-58
2023/04/09 10:48:35;;;;;;;;;;;;;;;;;;;;;
2023/04/09 10:51:48;;;;;;;36.20;24.20;;;;;;;8.46;84.19;101529.25;103776;1274;71872;-54
2023/04/09 10:55:18;;;;;;;36.80;22.70;;;;;;;8.44;84.33;101527.02;103885;1276;69199;-60
2023/04/09 10:58:53;;;;;;;;;;;;;;;;;;;;;
2023/04/09 11:02:15;;;;;;;36.20;22.70;;;;;;;8.54;84.73;101521.86;103498;1282;74225;-57
2023/04/09 11:05:48;;;;;;;32.20;23.40;;;;;;;8.46;84.32;101520.02;103934;1279;83208;-58
2023/04/09 11:09:28;;;;;;;;;;;;;;;;;;;;;
2023/04/09 11:12:44;;;;;;;34.10;24.80;;;;;;;8.37;84.74;101520.25;102981;1288;69599;-58
2023/04/09 11:15:43;;;;;;;32.00;21.20;;;;;;;8.37;85.01;101521.13;103314;1283;69833;-58
2023/04/09 11:19:02;;;;;;;;;;;;;;;8.44;85.15;101519.86;103393;1283;74035;-58
2023/04/09 11:22:12;;;;;;;34.10;23.70;;;;;;;8.52;85.15;101521.88;103391;1283;83244;-60
2023/04/09 11:25:19;;;;;;;30.40;23.60;;;;;;;8.55;85.11;101521.31;103748;1270;73774;-60
2023/04/09 11:28:46;;;;;;;30.60;20.50;;;;;;;8.60;84.90;101520.05;104099;1276;69282;-60
2023/04/09 11:32:09;;;;;;;;;;;;;;;;;;;;;
2023/04/09 11:35:27;;;;;;;;;;;;;;;;;;;;;
2023/04/09 11:38:24;;;;;;;32.10;22.40;;;;;;;8.64;85.14;101510.94;104778;1267;81998;-60
2023/04/09 11:45:23;;;;;;;35.70;24.40;;;;;;;8.58;84.99;101505.61;104230;1270;69262;-62
2023/04/09 11:48:27;;;;;;;33.50;22.90;;;;;;;8.51;84.69;101506.21;104507;1270;69313;-57
2023/04/09 11:51:52;;;;;;;;;;;;;;;;;;;;;
2023/04/09 11:54:44;;;;;;;35.50;23.00;;;;;;;8.53;85.24;101511.77;104489;1270;83523;-61
2023/04/09 11:58:17;;;;;;;30.40;21.40;;;;;;;8.54;85.34;101514.70;104618;1262;73793;-59
2023/04/09 12:01:37;;;;;;;36.90;24.20;;;;;;;8.56;85.18;101514.67;104460;1270;69332;-61
2023/04/09 12:05:02;;;;;;;;;;;;;;;;;;;;;
2023/04/09 12:08:22;;;;;;;;;;;;;;;;;;;;;
2023/04/09 12:11:37;;;;;;;41.10;26.90;;;;;;;8.83;85.47;101512.81;104179;1270;83506;-58
2023/04/09 12:14:38;;;;;;;29.70;20.90;;;;;;;8.91;85.24;101512.70;104180;1276;73859;-58
2023/04/09 12:17:49;;;;;;;38.40;27.00;;;;;;;9.02;85.38;101515.03;104144;1276;69362;-61
2023/04/09 12:21:03;;;;;;;34.60;23.50;;;;;;;9.14;85.27;101512.23;104187;1270;69328;-59
2023/04/09 12:24:06;;;;;;;35.20;26.60;;;;;;;9.21;84.89;101512.86;104637;1264;74175;-58
2023/04/09 12:27:13;;;;;;;32.40;22.80;;;;;;;9.20;84.62;101511.48;104642;1267;83480;-59
2023/04/09 12:30:16;;;;;;;;;;;;;;;;;;;;;
2023/04/09 12:33:07;;;;;;;31.70;21.40;;;;;;;9.24;84.54;101515.60;104577;1268;69376;-61
2023/04/09 12:36:51;;;;;;;30.10;21.20;;;;;;;9.23;84.46;101513.34;104657;1266;69263;-60
2023/04/09 12:39:48;;;;;;;29.90;19.90;;;;;;;9.22;84.43;101514.57;105065;1257;74109;-61
2023/04/09 12:42:56;;;;;;;31.80;20.90;;;;;;;9.25;84.53;101510.35;105243;1255;83156;-61
2023/04/09 12:45:56;;;;;;;27.60;20.80;;;;;;;9.27;84.73;101507.54;105271;1257;73845;-59
2023/04/09 12:48:58;;;;;;;;;;;;;;;;;;;;;
2023/04/09 12:52:08;;;;;;;30.40;21.60;;;;;;;9.45;85.10;101504.49;105075;1257;69097;-56
2023/04/09 12:54:59;;;;;;;26.60;20.20;;;;;;;9.53;84.77;101500.70;105121;1260;73522;-59
2023/04/09 12:58:08;;;;;;;31.10;22.30;;;;;;;9.55;84.74;101501.54;105131;1261;82810;-58
2023/04/09 13:01:00;;;;;;;41.70;26.40;;;;;;;9.61;84.79;101501.45;105157;1256;73783;-61
2023/04/09 13:04:09;;;;;;;32.90;23.80;;;;;;;9.70;84.83;101506.03;105026;1262;69221;-57
2023/04/09 13:07:04;;;;;;;33.80;24.30;;;;;;;9.73;84.71;101502.67;105330;1258;69209;-58
2023/04/09 13:10:16;;;;;;;31.30;21.10;;;;;;;9.73;84.61;101501.96;105088;1260;74066;-58
2023/04/09 13:13:10;;;;;;;54.50;28.90;;;;;;;9.80;84.83;101503.08;105108;1258;83504;-56
2023/04/09 13:16:11;;;;;;;38.10;23.40;;;;;;;9.85;84.68;101504.03;105146;1256;73585;-57
2023/04/09 13:19:00;;;;;;;44.60;24.00;;;;;;;9.87;84.48;101502.61;105246;1259;69190;-58
2023/04/09 13:22:06;;;;;;;28.80;21.20;;;;;;;9.90;84.39;101503.09;105222;1260;69090;-56
2023/04/09 13:25:15;;;;;;;28.10;20.30;;;;;;;9.90;84.31;101499.94;105063;1257;73222;-56
2023/04/09 13:28:16;;;;;;;40.10;26.80;;;;;;;9.94;84.38;101500.23;105193;1257;83401;-60
2023/04/09 13:31:26;;;;;;;40.60;26.20;;;;;;;9.98;84.38;101501.20;105177;1257;73466;-58
2023/04/09 13:38:18;;;;;;;;;;;;;;;;;;;;;
2023/04/09 13:41:17;;;;;;;35.90;24.10;;;;;;;10.11;84.44;101506.39;105085;1257;73816;-56
2023/04/09 13:44:31;;;;;;;45.60;28.30;;;;;;;10.12;84.36;101507.09;105240;1260;82663;-56
2023/04/09 13:47:06;;;;;;;41.50;25.90;;;;;;;10.09;84.23;101506.25;105199;1258;73785;-55
2023/04/09 13:50:46;;;;;;;;;;;;;;;;;;;;;
2023/04/09 13:54:13;;;;;;;32.90;21.60;;;;;;;10.03;84.26;101512.82;105127;1257;69258;-59
2023/04/09 13:57:09;;;;;;;36.60;23.60;;;;;;;10.04;84.33;101511.57;105006;1260;74023;-59
2023/04/09 14:00:11;;;;;;;34.90;23.20;;;;;;;10.08;84.49;101506.62;105141;1255;83561;-60
2023/04/09 14:03:17;;;;;;;41.90;26.60;;;;;;;10.15;84.39;101505.98;101128;1255;5554510;-58
2023/04/09 14:06:37;;;;;;;;;;;;;;;;;;;;;
2023/04/09 14:09:25;;;;;;;32.80;24.30;;;;;;;10.20;84.40;101503.27;105430;1260;69192;-58
2023/04/09 14:12:24;;;;;;;37.90;25.20;;;;;;;10.25;84.36;101504.06;105596;1254;73815;-59
2023/04/09 14:15:19;;;;;;;33.90;24.00;;;;;;;10.32;84.42;101496.45;105301;1258;83408;-58
2023/04/09 14:18:07;;;;;;;33.50;23.60;;;;;;;10.41;84.42;101495.92;105218;1254;72784;-59
2023/04/09 14:20:53;;;;;;;30.20;21.70;;;;;;;10.50;84.22;101499.26;105229;1258;69177;-58
2023/04/09 14:23:55;;;;;;;;;;;;;;;;;;;;;
2023/04/09 14:27:08;;;;;;;29.20;20.50;;;;;;;10.58;84.12;101491.94;105171;1256;73034;-63
2023/04/09 14:29:45;;;;;;;29.10;19.90;;;;;;;10.60;84.11;101488.91;105213;1258;83314;-55
2023/04/09 14:33:01;;;;;;;26.00;20.00;;;;;;;10.64;84.18;101494.97;105114;1260;73140;-55
2023/04/09 14:35:53;;;;;;;28.50;20.60;;;;;;;10.66;84.11;101489.69;105178;1255;69148;-56
2023/04/09 14:38:57;;;;;;;30.30;22.50;;;;;;;10.69;84.15;101487.52;105094;1260;69233;-55
2023/04/09 14:41:53;;;;;;;27.40;20.70;;;;;;;10.69;84.01;101480.86;105235;1257;74281;-58
2023/04/09 14:44:51;;;;;;;30.10;21.90;;;;;;;10.66;84.07;101482.52;105195;1256;83284;-59
2023/04/09 14:47:36;;;;;;;26.20;18.90;;;;;;;10.63;83.89;101474.73;105099;1256;73533;-59
2023/04/09 14:50:27;;;;;;;24.70;17.70;;;;;;;10.61;83.73;101475.63;105224;1255;69098;-59
2023/04/09 14:53:28;;;;;;;;;;;;;;;;;;;;;
2023/04/09 14:56:34;;;;;;;24.70;17.80;;;;;;;10.60;83.82;101472.48;105159;1256;74083;-60
2023/04/09 14:59:19;;;;;;;24.50;17.70;;;;;;;10.61;83.75;101468.80;105078;1260;83248;-60
2023/04/09 15:05:30;;;;;;;26.90;20.40;;;;;;;10.65;84.03;101465.94;105161;1256;69137;-56
2023/04/09 15:08:15;;;;;;;26.80;20.40;;;;;;;10.63;83.94;101464.40;105241;1254;69211;-59
2023/04/09 15:11:14;;;;;;;;;;;;;;;;;;;;;
2023/04/09 15:14:10;;;;;;;32.00;22.30;;;;;;;10.68;84.18;101462.72;105091;1260;83573;-56
2023/04/09 15:17:11;;;;;;;33.20;21.50;;;;;;;10.69;84.03;101462.67;105224;1256;72815;-60
2023/04/09 15:20:23;;;;;;;63.30;33.30;;;;;;;10.75;84.05;101463.27;105090;1256;69212;-55
2023/04/09 15:23:21;;;;;;;48.80;27.70;;;;;;;10.82;84.17;101465.04;105144;1260;69201;-59
2023/04/09 15:26:13;;;;;;;23.60;17.90;;;;;;;10.84;83.83;101469.55;105274;1258;74524;-59
2023/04/09 15:28:58;;;;;;;24.10;18.70;;;;;;;10.85;83.76;101470.76;105305;1258;83504;-55
2023/04/09 15:31:49;;;;;;;26.10;19.90;;;;;;;10.82;83.61;101473.81;105110;1256;73670;-62
2023/04/09 15:34:49;;;;;;;25.20;19.40;;;;;;;10.79;83.74;101472.27;105186;1259;69139;-55
2023/04/09 15:37:47;;;;;;;25.20;20.20;;;;;;;10.81;83.88;101477.48;105203;1256;69191;-57
2023/04/09 15:40:44;;;;;;;30.40;21.10;;;;;;;10.80;83.90;101476.61;105218;1256;73807;-58
2023/04/09 15:43:43;;;;;;;27.00;19.70;;;;;;;10.76;83.77;101475.14;105173;1259;83547;-56
2023/04/09 15:46:51;;;;;;;23.20;17.40;;;;;;;10.72;83.65;101476.80;105057;1257;73671;-57
2023/04/09 15:49:57;;;;;;;24.40;18.20;;;;;;;10.69;83.71;101474.23;105081;1257;69164;-56
2023/04/09 15:52:58;;;;;;;24.30;18.30;;;;;;;10.67;83.62;101473.92;105193;1254;69542;-61
2023/04/09 15:55:48;;;;;;;24.70;18.40;;;;;;;10.64;83.71;101473.11;105233;1258;74050;-57
2023/04/09 15:58:53;;;;;;;25.40;18.70;;;;;;;10.63;83.94;101472.09;105234;1258;83043;-58
2023/04/09 16:02:10;;;;;;;26.00;19.10;;;;;;;10.61;84.09;101464.78;105200;1256;72470;-60
2023/04/09 16:05:03;;;;;;;27.00;19.80;;;;;;;10.56;83.83;101466.27;105197;1258;69196;-62
2023/04/09 16:07:58;;;;;;;31.80;21.70;;;;;;;10.52;83.91;101468.46;105287;1256;69238;-56
2023/04/09 16:11:00;;;;;;;28.20;19.50;;;;;;;10.49;84.11;101468.16;105351;1258;74115;-57
2023/04/09 16:13:54;;;;;;;27.10;19.10;;;;;;;10.49;84.17;101468.33;105541;1258;83260;-61
2023/04/09 16:16:51;;;;;;;;;;;;;;;;;;;;;
2023/04/09 16:20:00;;;;;;;25.80;17.90;;;;;;;10.43;84.13;101465.84;105335;1254;69218;-59
2023/04/09 16:23:07;;;;;;;27.00;18.20;;;;;;;10.44;84.50;101465.30;105032;1258;69182;-58
2023/04/09 16:26:04;;;;;;;27.40;19.30;;;;;;;10.45;84.49;101465.61;105100;1260;72963;-58
2023/04/09 16:29:32;;;;;;;;;;;;;;;;;;;;;
2023/04/09 16:32:49;;;;;;;34.50;23.90;;;;;;;10.38;84.50;101464.36;105190;1254;72676;-59
2023/04/09 16:35:48;;;;;;;35.70;23.70;;;;;;;10.35;84.48;101461.98;105205;1256;69090;-61
2023/04/09 16:39:04;;;;;;;32.40;22.00;;;;;;;10.31;84.40;101461.70;105134;1260;69187;-61
2023/04/09 16:42:17;;;;;;;32.20;22.30;;;;;;;10.25;84.52;101458.46;105174;1256;73740;-59
2023/04/09 16:45:10;;;;;;;40.30;24.80;;;;;;;10.22;84.59;101460.77;104989;1261;82512;-59
2023/04/09 16:48:20;;;;;;;38.60;25.60;;;;;;;10.19;84.56;101457.01;105106;1256;73721;-59
2023/04/09 16:51:15;;;;;;;;;;;;;;;10.16;84.73;101461.94;104998;1260;69181;-59
2023/04/09 16:54:37;;;;;;;33.60;21.60;;;;;;;10.13;84.91;101458.52;105023;1261;69188;-59
2023/04/09 16:57:34;;;;;;;28.60;19.90;;;;;;;10.12;85.06;101458.36;104993;1257;74128;-59
2023/04/09 17:00:55;;;;;;;28.70;20.30;;;;;;;10.11;85.07;101458.19;104997;1260;83517;-60
2023/04/09 17:04:01;;;;;;;29.40;21.20;;;;;;;10.09;85.09;101454.21;105107;1259;73708;-59
2023/04/09 17:06:58;;;;;;;29.60;21.20;;;;;;;10.07;85.23;101454.62;105012;1258;69142;-60
2023/04/09 17:10:09;;;;;;;33.40;23.00;;;;;;;10.05;85.43;101457.43;105010;1260;69611;-58
2023/04/09 17:13:15;;;;;;;32.40;23.80;;;;;;;10.00;85.56;101453.68;105094;1257;74046;-57
2023/04/09 17:16:16;;;;;;;32.30;22.50;;;;;;;9.98;85.63;101452.66;105065;1260;83208;-60
2023/04/09 17:19:36;;;;;;;;;;;;;;;;;;;;;
2023/04/09 17:22:47;;;;;;;;;;;;;;;;;;;;;
2023/04/09 17:26:05;;;;;;;28.20;19.10;;;;;;;9.84;85.68;101464.42;105161;1258;69223;-59
2023/04/09 17:29:25;;;;;;;27.20;19.60;;;;;;;9.81;85.93;101467.98;104928;1257;73736;-57
2023/04/09 17:32:40;;;;;;;29.50;20.10;;;;;;;9.78;86.17;101471.52;105024;1260;83419;-62
2023/04/09 17:35:52;;;;;;;30.70;20.70;;;;;;;9.74;86.18;101470.70;104585;1263;73770;-60
2023/04/09 17:39:24;;;;;;;;;;;;;;;;;;;;;
2023/04/09 17:42:55;;;;;;;34.40;22.30;;;;;;;9.67;86.58;101472.92;104613;1264;69234;-59
2023/04/09 17:46:13;;;;;;;33.10;22.50;;;;;;;9.64;86.72;101478.20;104536;1264;74074;-62
2023/04/09 17:49:16;;;;;;;37.80;24.00;;;;;;;9.62;86.63;101481.90;104676;1267;83573;-60
2023/04/09 17:52:39;;;;;;;;;;;;;;;;;;;;;
2023/04/09 17:56:07;;;;;;;;;;;;;;;;;;;;;
2023/04/09 17:59:08;;;;;;;;;;;;;;;9.49;86.79;101476.69;105170;1260;69210;-60
2023/04/09 18:01:56;;;;;;;;;;;;;;;;;;;;;
2023/04/09 18:05:04;;;;;;;;;;;;;;;;;;;;;
2023/04/09 18:08:00;;;;;;;27.60;18.20;;;;;;;9.34;86.99;101487.02;105285;1257;73187;-58
2023/04/09 18:11:19;;;;;;;;;;;;;;;;;;;;;
2023/04/09 18:14:20;;;;;;;26.30;18.00;;;;;;;9.30;87.52;101486.20;105243;1259;69150;-56
2023/04/09 18:17:41;;;;;;;25.90;17.60;;;;;;;9.30;87.71;101486.55;105180;1256;74055;-59
2023/04/09 18:21:03;;;;;;;;;;;;;;;;;;;;;
2023/04/09 18:24:36;;;;;;;;;;;;;;;;;;;;;
2023/04/09 18:27:34;;;;;;;23.50;17.30;;;;;;;9.12;87.77;101503.91;105095;1260;69190;-57
2023/04/09 18:30:49;;;;;;;26.30;18.30;;;;;;;9.07;87.81;101507.80;105186;1259;69208;-56
2023/04/09 18:33:47;;;;;;;25.00;18.60;;;;;;;9.02;88.04;101512.23;105164;1256;74218;-58
2023/04/09 18:36:59;;;;;;;30.60;21.10;;;;;;;9.00;88.32;101517.13;105267;1256;83547;-61
2023/04/09 18:40:20;;;;;;;23.30;16.60;;;;;;;8.98;88.26;101521.52;105333;1257;73469;-58
2023/04/09 18:43:26;;;;;;;31.90;20.80;;;;;;;8.96;88.50;101524.16;105152;1259;69123;-59
2023/04/09 18:46:27;;;;;;;;;;;;;;;;;;;;;
2023/04/09 18:49:29;;;;;;;32.90;21.20;;;;;;;8.94;88.77;101529.05;105520;1255;73130;-62
2023/04/09 18:52:36;;;;;;;;;;;;;;;;;;;;;